createdAt,value
2023-04-16T00:03:55.678Z,7.6
2023-04-16T00:09:48.450Z,7.5
2023-04-16T00:15:23.791Z,7.4
2023-04-16T00:21:15.983Z,7.2
2023-04-16T00:27:07.136Z,7
2023-04-16T00:32:43.288Z,6.9
2023-04-16T00:38:19.194Z,6.7
2023-04-16T00:44:11.372Z,6.6
2023-04-16T00:50:03.788Z,6.4
2023-04-16T00:55:39.800Z,6.3
2023-04-16T01:01:16.322Z,6.2
2023-04-16T01:06:39.436Z,6.1
2023-04-16T01:12:16.090Z,5.9
2023-04-16T01:17:52.353Z,5.8
2023-04-16T01:23:28.981Z,5.7
2023-04-16T01:29:04.682Z,5.6
2023-04-16T01:34:41.190Z,5.5
2023-04-16T01:40:32.539Z,5.4
2023-04-16T01:46:08.521Z,5.3
2023-04-16T01:52:00.754Z,5.3
2023-04-16T01:57:36.663Z,5.3
2023-04-16T02:03:29.988Z,5.2
2023-04-16T02:09:06.223Z,5.2
2023-04-16T02:14:41.911Z,5.2
2023-04-16T02:20:34.040Z,5.1
2023-04-16T02:26:25.057Z,5.2
2023-04-16T02:32:16.546Z,5.3
2023-04-16T02:38:07.711Z,5.3
2023-04-16T02:43:59.225Z,5.3
2023-04-16T02:49:51.432Z,5.3
2023-04-16T02:55:42.444Z,5.3
2023-04-16T03:01:34.460Z,5.2
2023-04-16T03:07:10.644Z,5.2
2023-04-16T03:13:02.467Z,5.2
2023-04-16T03:18:38.958Z,5.2
2023-04-16T03:24:30.899Z,5.3
2023-04-16T03:30:22.609Z,5.3
2023-04-16T03:36:14.367Z,5.3
2023-04-16T03:42:05.799Z,5.3
2023-04-16T03:47:26.627Z,5.4
2023-04-16T03:53:18.082Z,5.4
2023-04-16T03:58:54.069Z,5.4
2023-04-16T04:04:48.265Z,5.4
2023-04-16T04:10:25.037Z,5.4
2023-04-16T04:16:16.771Z,5.5
2023-04-16T04:22:18.684Z,5.6
2023-04-16T04:27:39.437Z,5.6
2023-04-16T04:33:31.333Z,5.7
2023-04-16T04:39:23.008Z,5.8
2023-04-16T04:45:14.292Z,5.9
2023-04-16T04:51:07.910Z,6
2023-04-16T04:56:48.541Z,6.1
2023-04-16T05:02:40.701Z,6.3
2023-04-16T05:08:32.902Z,6.6
2023-04-16T05:14:09.304Z,6.8
2023-04-16T05:19:46.252Z,7
2023-04-16T05:25:37.755Z,7.3
2023-04-16T05:31:30.315Z,7.6
2023-04-16T05:37:22.317Z,8.3
2023-04-16T05:43:13.435Z,9.1
2023-04-16T05:48:52.929Z,10.2
2023-04-16T05:54:44.433Z,11.3
2023-04-16T06:00:36.047Z,12.3
2023-04-16T06:06:14.066Z,13.1
2023-04-16T06:11:52.559Z,13.9
2023-04-16T06:17:28.731Z,14.8
2023-04-16T06:23:19.981Z,16
2023-04-16T06:29:14.045Z,17.8
2023-04-16T06:35:01.570Z,19.9
2023-04-16T06:40:53.428Z,22.1
2023-04-16T06:46:29.197Z,23.5
2023-04-16T06:52:05.995Z,25.6
2023-04-16T06:57:42.237Z,28.7
2023-04-16T07:03:35.303Z,32.6
2023-04-16T07:09:27.626Z,38.3
2023-04-16T07:15:19.040Z,31.7
2023-04-16T07:21:12.146Z,28
2023-04-16T07:27:02.969Z,28
2023-04-16T07:32:54.401Z,30.1
2023-04-16T07:38:15.641Z,31.9
2023-04-16T07:44:08.390Z,32.9
2023-04-16T07:50:13.239Z,33.8
2023-04-16T07:56:04.155Z,37.6
2023-04-16T08:01:39.953Z,33.3
2023-04-16T08:07:34.950Z,29.6
2023-04-16T08:13:26.564Z,31.6
2023-04-16T08:19:18.651Z,38.4
2023-04-16T08:25:10.563Z,42.3
2023-04-16T08:31:15.243Z,40.8
2023-04-16T08:37:07.431Z,38.8
2023-04-16T08:42:59.298Z,34.6
2023-04-16T08:48:35.916Z,33.8
2023-04-16T08:54:27.701Z,34.5
2023-04-16T09:00:20.162Z,38.1
2023-04-16T09:06:13.950Z,39.5
2023-04-16T09:12:05.171Z,40.1
2023-04-16T09:17:57.056Z,36.4
2023-04-16T09:23:49.025Z,34.3
2023-04-16T09:29:27.631Z,34.2
2023-04-16T09:35:19.627Z,36.4
2023-04-16T09:40:57.323Z,40.8
2023-04-16T09:46:37.707Z,38.1
2023-04-16T09:52:31.353Z,37.6
2023-04-16T09:58:22.826Z,40.2
2023-04-16T10:04:37.205Z,42.1
2023-04-16T10:10:28.845Z,42.5
2023-04-16T10:16:19.809Z,40.6
2023-04-16T10:22:12.054Z,39
2023-04-16T10:28:03.945Z,37
2023-04-16T10:33:41.077Z,36.6
2023-04-16T10:39:47.350Z,37.6
2023-04-16T10:45:41.012Z,39.3
2023-04-16T10:51:41.411Z,42.6
2023-04-16T10:57:35.063Z,42.3
2023-04-16T11:03:11.525Z,39.7
2023-04-16T11:09:12.498Z,40.7
2023-04-16T11:15:04.793Z,41.3
2023-04-16T11:21:15.075Z,47
2023-04-16T11:27:06.892Z,46.9
2023-04-16T11:32:58.168Z,43.2
2023-04-16T11:38:49.302Z,41.8
2023-04-16T11:44:42.180Z,40.3
2023-04-16T11:50:45.896Z,38.5
2023-04-16T11:56:21.678Z,37.9
2023-04-16T12:02:42.192Z,37.1
2023-04-16T12:08:35.518Z,36.7
2023-04-16T12:14:27.168Z,36.5
2023-04-16T12:20:03.122Z,37.6
2023-04-16T12:25:39.110Z,39.8
2023-04-16T12:31:18.092Z,42.9
2023-04-16T12:37:22.921Z,45.3
2023-04-16T12:43:13.577Z,38.1
2023-04-16T12:49:05.398Z,36.3
2023-04-16T12:54:58.457Z,34.3
2023-04-16T13:00:50.407Z,33.3
2023-04-16T13:06:44.935Z,32.3
2023-04-16T13:12:37.047Z,30.9
2023-04-16T13:18:29.210Z,29.4
2023-04-16T13:24:21.693Z,28.3
2023-04-16T13:30:13.916Z,27.2
2023-04-16T13:36:08.644Z,25.8
2023-04-16T13:41:47.983Z,24.4
2023-04-16T13:47:24.778Z,23.3
2023-04-16T13:53:01.188Z,22.4
2023-04-16T13:58:38.293Z,21.4
2023-04-16T14:04:16.165Z,20.1
2023-04-16T14:09:21.372Z,19.4
2023-04-16T14:14:26.796Z,19.1
2023-04-16T14:20:18.645Z,18.9
2023-04-16T14:26:09.728Z,18.8
2023-04-16T14:32:01.950Z,18.9
2023-04-16T14:37:54.149Z,18.8
2023-04-16T14:43:30.606Z,18.6
2023-04-16T14:49:22.224Z,18.2
2023-04-16T18:56:15.335Z,9.4
2023-04-16T19:02:08.012Z,9.4
2023-04-16T19:07:44.472Z,9.3
2023-04-16T19:13:34.866Z,9.3
2023-04-16T19:19:14.515Z,9.3
2023-04-16T19:24:51.697Z,9.2
2023-04-16T19:30:42.874Z,9.2
2023-04-16T19:36:36.465Z,9.2
2023-04-16T19:42:27.368Z,9.2
2023-04-16T19:48:18.255Z,9.3
2023-04-16T19:54:10.346Z,9.3
2023-04-16T20:00:00.707Z,9.3
2023-04-16T20:05:52.728Z,9.3
2023-04-16T20:11:45.235Z,9.3
2023-04-16T20:17:35.816Z,9.3
2023-04-16T20:23:33.033Z,9.3
2023-04-16T20:29:25.051Z,9.3
2023-04-16T20:35:17.853Z,9.3
2023-04-16T20:41:12.093Z,9.4
2023-04-16T20:47:04.785Z,9.4
2023-04-16T20:52:41.133Z,9.4
2023-04-16T20:58:33.154Z,9.5
2023-04-16T21:04:27.331Z,9.5
2023-04-16T21:10:18.455Z,9.6
2023-04-16T21:15:38.246Z,9.5
2023-04-16T21:20:59.749Z,9.4
2023-04-16T21:26:51.275Z,9.4
2023-04-16T21:32:27.624Z,9.4
2023-04-16T21:38:19.924Z,9.3
2023-04-16T21:43:40.524Z,9.3
2023-04-16T21:49:17.433Z,9.4
2023-04-16T21:55:10.258Z,9.4
2023-04-16T22:00:46.406Z,9.4
2023-04-16T22:06:39.892Z,9.4
2023-04-16T22:12:49.684Z,9.4
2023-04-16T22:18:56.384Z,9.4
2023-04-16T22:24:47.871Z,9.4
2023-04-16T22:30:40.069Z,9.4
2023-04-16T22:36:30.402Z,9.4
2023-04-16T22:42:22.107Z,9.3
2023-04-16T22:48:14.891Z,9.3
2023-04-16T22:54:05.025Z,9.3
2023-04-16T22:59:40.832Z,9.3
2023-04-16T23:05:34.742Z,9.3
2023-04-16T23:11:25.620Z,9.3
2023-04-16T23:17:01.431Z,9.3
2023-04-16T23:22:23.437Z,9.3
2023-04-16T23:27:43.486Z,9.4
2023-04-16T23:33:19.764Z,9.4
2023-04-16T23:39:12.156Z,9.3
2023-04-16T23:45:03.501Z,9.3
2023-04-16T23:50:24.181Z,9.3
2023-04-16T23:56:01.400Z,9.3
